createdAt,value
2023-05-23T00:01:00.751Z,7.13
2023-05-23T00:03:28.058Z,8.30
2023-05-23T00:05:55.832Z,6.73
2023-05-23T00:08:22.062Z,7.63
2023-05-23T00:10:48.202Z,7.53
2023-05-23T00:13:14.378Z,8.40
2023-05-23T00:15:41.703Z,6.90
2023-05-23T00:18:11.014Z,7.83
2023-05-23T00:20:40.163Z,8.20
2023-05-23T00:23:10.022Z,8.30
2023-05-23T00:25:36.804Z,8.20
2023-05-23T00:28:04.239Z,8.80
2023-05-23T00:30:31.716Z,10.73
2023-05-23T00:32:58.338Z,10.83
2023-05-23T00:35:24.611Z,12.60
2023-05-23T00:37:51.230Z,18.83
2023-05-23T00:40:18.242Z,16.93
2023-05-23T00:42:45.006Z,18.83
2023-05-23T00:45:14.571Z,19.03
2023-05-23T00:47:41.227Z,18.33
2023-05-23T00:50:14.076Z,18.57
2023-05-23T00:52:40.624Z,18.00
2023-05-23T00:55:07.899Z,16.27
2023-05-23T00:57:39.004Z,16.43
2023-05-23T01:00:09.452Z,16.13
2023-05-23T01:02:40.930Z,14.83
2023-05-23T01:05:07.515Z,15.03
2023-05-23T01:07:33.664Z,15.87
2023-05-23T01:10:00.357Z,14.53
2023-05-23T01:12:56.434Z,14.20
2023-05-23T01:15:27.116Z,14.00
2023-05-23T01:17:59.183Z,14.97
2023-05-23T01:20:32.205Z,15.23
2023-05-23T01:23:00.977Z,15.53
2023-05-23T01:25:42.301Z,15.77
2023-05-23T01:28:11.685Z,17.03
2023-05-23T01:30:40.375Z,15.70
2023-05-23T01:33:07.905Z,16.73
2023-05-23T01:35:34.343Z,16.03
2023-05-23T01:38:00.523Z,17.67
2023-05-23T01:40:26.785Z,17.00
2023-05-23T01:42:55.024Z,14.67
2023-05-23T01:45:21.324Z,16.57
2023-05-23T01:47:49.724Z,14.90
2023-05-23T01:50:16.428Z,15.93
2023-05-23T01:52:42.733Z,14.23
2023-05-23T01:55:11.165Z,14.73
2023-05-23T01:57:37.588Z,16.00
2023-05-23T02:00:06.085Z,13.80
2023-05-23T02:02:35.300Z,14.27
2023-05-23T02:05:01.439Z,13.73
2023-05-23T02:07:27.601Z,13.27
2023-05-23T02:09:55.494Z,12.50
2023-05-23T02:12:21.580Z,11.97
2023-05-23T02:14:49.343Z,11.97
2023-05-23T02:17:16.156Z,11.80
2023-05-23T02:19:42.608Z,11.17
2023-05-23T02:22:08.753Z,10.10
2023-05-23T02:24:35.014Z,10.93
2023-05-23T02:27:01.190Z,10.10
2023-05-23T02:29:27.287Z,10.40
2023-05-23T02:31:53.362Z,10.23
2023-05-23T02:34:19.449Z,10.10
2023-05-23T02:36:45.636Z,10.07
2023-05-23T02:39:11.749Z,10.63
2023-05-23T02:41:37.985Z,9.90
2023-05-23T02:44:04.152Z,9.80
2023-05-23T02:46:30.290Z,10.73
2023-05-23T02:48:56.490Z,10.67
2023-05-23T02:51:22.618Z,10.30
2023-05-23T02:53:48.783Z,10.03
2023-05-23T02:56:15.436Z,10.13
2023-05-23T02:58:41.786Z,10.37
2023-05-23T03:01:08.240Z,9.53
2023-05-23T03:03:34.659Z,10.30
2023-05-23T03:06:02.620Z,10.20
2023-05-23T03:08:28.713Z,10.73
2023-05-23T03:10:54.921Z,9.90
2023-05-23T03:13:21.522Z,10.30
2023-05-23T03:15:47.663Z,9.70
2023-05-23T03:18:13.840Z,9.33
2023-05-23T03:20:40.031Z,8.87
2023-05-23T03:23:06.157Z,7.73
2023-05-23T03:25:32.224Z,7.50
2023-05-23T03:27:58.315Z,7.90
2023-05-23T03:30:24.375Z,7.47
2023-05-23T03:32:50.571Z,7.03
2023-05-23T03:35:16.749Z,7.80
2023-05-23T03:37:42.886Z,7.53
2023-05-23T03:40:09.332Z,7.63
2023-05-23T03:42:36.326Z,7.43
2023-05-23T03:45:02.685Z,7.57
2023-05-23T03:47:28.788Z,7.03
2023-05-23T03:49:54.948Z,7.50
2023-05-23T03:52:21.031Z,7.43
2023-05-23T03:54:47.155Z,8.07
2023-05-23T03:57:13.314Z,7.80
2023-05-23T03:59:39.489Z,7.87
2023-05-23T04:02:05.914Z,8.37
2023-05-23T04:04:32.095Z,6.87
2023-05-23T04:06:58.634Z,8.00
2023-05-23T04:09:24.723Z,7.67
2023-05-23T04:11:51.367Z,6.57
2023-05-23T04:14:19.454Z,6.23
2023-05-23T04:16:47.464Z,5.93
2023-05-23T04:19:13.609Z,5.47
2023-05-23T04:21:39.777Z,5.60
2023-05-23T04:24:06.161Z,5.10
2023-05-23T04:26:32.427Z,4.70
2023-05-23T04:28:58.625Z,4.30
2023-05-23T04:31:25.002Z,4.77
2023-05-23T04:33:51.777Z,4.40
2023-05-23T04:36:18.171Z,4.70
2023-05-23T04:38:44.315Z,4.50
2023-05-23T04:41:10.771Z,3.90
2023-05-23T04:43:41.898Z,4.77
2023-05-23T04:46:09.422Z,4.33
2023-05-23T04:48:36.576Z,4.40
2023-05-23T04:51:05.924Z,4.80
2023-05-23T04:53:32.003Z,4.97
2023-05-23T04:55:58.671Z,4.93
2023-05-23T04:58:24.981Z,4.43
2023-05-23T05:00:51.143Z,5.33
2023-05-23T05:03:17.277Z,4.70
2023-05-23T05:05:43.393Z,5.10
2023-05-23T05:08:09.526Z,4.50
2023-05-23T05:10:35.706Z,4.53
2023-05-23T05:13:01.820Z,3.97
2023-05-23T05:15:27.906Z,3.70
2023-05-23T05:17:54.116Z,4.40
2023-05-23T05:20:21.067Z,3.77
2023-05-23T05:22:47.340Z,4.50
2023-05-23T05:25:13.590Z,4.30
2023-05-23T05:27:39.750Z,4.37
2023-05-23T05:30:07.363Z,3.87
2023-05-23T05:32:33.613Z,3.83
2023-05-23T05:35:00.449Z,3.50
2023-05-23T05:37:26.598Z,3.73
2023-05-23T05:39:53.850Z,3.20
2023-05-23T05:42:22.797Z,4.30
2023-05-23T05:44:49.177Z,3.93
2023-05-23T05:47:15.445Z,3.53
2023-05-23T05:49:41.575Z,3.77
2023-05-23T05:52:08.297Z,4.27
2023-05-23T05:54:34.428Z,5.00
2023-05-23T05:57:00.565Z,4.50
2023-05-23T05:59:26.986Z,4.73
2023-05-23T06:01:53.183Z,4.10
2023-05-23T06:04:19.326Z,4.23
2023-05-23T06:06:45.515Z,4.17
2023-05-23T06:09:11.626Z,4.90
2023-05-23T06:11:41.152Z,4.80
2023-05-23T06:14:07.559Z,4.73
2023-05-23T06:16:34.221Z,4.87
2023-05-23T06:19:00.571Z,4.30
2023-05-23T06:21:27.143Z,4.33
2023-05-23T06:23:53.320Z,4.80
2023-05-23T06:26:19.534Z,4.50
2023-05-23T06:28:45.719Z,4.53
2023-05-23T06:31:12.036Z,3.90
2023-05-23T06:33:38.227Z,4.07
2023-05-23T06:36:04.468Z,4.43
2023-05-23T06:38:32.953Z,4.57
2023-05-23T06:40:59.684Z,4.60
2023-05-23T06:43:25.830Z,4.60
2023-05-23T06:45:52.014Z,4.63
2023-05-23T06:48:18.130Z,4.90
2023-05-23T06:50:44.344Z,4.40
2023-05-23T06:53:10.564Z,4.83
2023-05-23T06:55:36.705Z,5.27
2023-05-23T06:58:03.661Z,6.13
2023-05-23T07:00:31.113Z,5.20
2023-05-23T07:03:00.675Z,5.80
2023-05-23T07:05:27.691Z,5.20
2023-05-23T07:07:54.060Z,5.40
2023-05-23T07:10:20.855Z,5.10
2023-05-23T07:12:47.137Z,5.07
2023-05-23T07:15:14.322Z,5.37
2023-05-23T07:17:40.646Z,5.43
2023-05-23T07:20:07.594Z,5.20
2023-05-23T07:22:33.746Z,5.50
2023-05-23T07:25:00.044Z,5.27
2023-05-23T07:27:26.717Z,5.30
2023-05-23T07:29:52.905Z,5.27
2023-05-23T07:32:19.058Z,5.90
2023-05-23T07:34:45.238Z,6.00
2023-05-23T07:37:11.429Z,6.20
2023-05-23T07:39:37.598Z,6.13
2023-05-23T07:42:03.915Z,5.77
2023-05-23T07:44:30.206Z,5.80
2023-05-23T07:46:56.439Z,5.83
2023-05-23T07:49:22.728Z,6.40
2023-05-23T07:51:48.938Z,4.80
2023-05-23T07:54:16.602Z,6.00
2023-05-23T07:56:43.073Z,5.10
2023-05-23T07:59:09.442Z,4.20
2023-05-23T08:01:35.877Z,4.27
2023-05-23T08:04:03.170Z,4.03
2023-05-23T08:06:29.333Z,4.53
2023-05-23T08:08:55.691Z,4.50
2023-05-23T08:11:21.861Z,5.13
2023-05-23T08:13:48.027Z,4.27
2023-05-23T08:16:14.223Z,4.97
2023-05-23T08:18:40.808Z,3.80
2023-05-23T08:21:07.128Z,4.20
2023-05-23T08:23:33.312Z,4.50
2023-05-23T08:25:59.489Z,3.67
2023-05-23T08:28:26.215Z,3.43
2023-05-23T08:30:53.355Z,3.33
2023-05-23T08:33:19.661Z,3.00
2023-05-23T08:35:45.964Z,3.30
2023-05-23T08:38:12.485Z,4.10
2023-05-23T08:40:39.416Z,4.00
2023-05-23T08:43:06.193Z,3.83
2023-05-23T08:45:33.955Z,3.90
2023-05-23T08:48:01.155Z,4.00
2023-05-23T08:50:28.996Z,3.97
2023-05-23T08:52:57.232Z,3.53
2023-05-23T08:55:25.764Z,3.80
2023-05-23T08:57:52.977Z,3.97
2023-05-23T09:00:19.961Z,4.40
2023-05-23T09:02:46.469Z,3.97
2023-05-23T09:05:13.152Z,3.33
2023-05-23T09:07:39.724Z,3.60
2023-05-23T09:10:07.764Z,3.90
2023-05-23T09:12:36.479Z,4.50
2023-05-23T09:15:04.534Z,4.90
2023-05-23T09:17:32.734Z,4.80
2023-05-23T09:20:00.117Z,4.73
2023-05-23T09:22:27.347Z,5.50
2023-05-23T09:24:54.987Z,4.57
2023-05-23T09:27:21.774Z,4.70
2023-05-23T09:29:49.257Z,4.70
2023-05-23T09:32:17.455Z,4.47
2023-05-23T09:34:50.114Z,4.30
2023-05-23T09:37:18.417Z,3.97
2023-05-23T09:39:50.490Z,3.30
2023-05-23T09:42:21.674Z,3.40
2023-05-23T09:44:48.177Z,3.47
2023-05-23T09:47:17.650Z,3.97
2023-05-23T09:49:45.314Z,3.40
2023-05-23T09:52:12.832Z,3.43
2023-05-23T09:54:39.952Z,3.23
2023-05-23T09:57:10.139Z,3.20
2023-05-23T09:59:41.155Z,2.60
2023-05-23T10:02:10.961Z,2.37
2023-05-23T10:04:38.995Z,2.00
2023-05-23T10:07:13.841Z,2.53
2023-05-23T10:09:41.750Z,1.80
2023-05-23T10:12:23.033Z,1.90
2023-05-23T10:14:55.486Z,1.80
2023-05-23T10:17:46.197Z,1.60
2023-05-23T10:20:15.744Z,1.50
2023-05-23T10:22:42.537Z,1.67
2023-05-23T10:25:09.799Z,1.50
2023-05-23T10:27:39.542Z,1.10
2023-05-23T10:30:07.531Z,1.20
2023-05-23T10:32:35.221Z,1.20
2023-05-23T10:35:06.518Z,1.00
2023-05-23T10:37:45.055Z,0.90
2023-05-23T10:40:48.789Z,0.93
2023-05-23T10:43:20.673Z,1.30
2023-05-23T10:45:50.034Z,0.80
2023-05-23T10:48:28.142Z,0.70
2023-05-23T10:51:20.359Z,0.93
2023-05-23T10:53:46.901Z,0.77
2023-05-23T10:56:22.940Z,0.60
2023-05-23T10:58:57.336Z,1.10
2023-05-23T11:01:24.281Z,0.70
2023-05-23T11:03:54.778Z,1.07
2023-05-23T11:06:44.582Z,1.20
2023-05-23T11:09:13.552Z,1.50
2023-05-23T11:11:57.347Z,1.97
2023-05-23T11:14:33.817Z,1.90
2023-05-23T11:17:12.045Z,2.40
2023-05-23T11:19:38.980Z,2.20
2023-05-23T11:22:08.473Z,2.70
2023-05-23T11:24:54.037Z,2.43
2023-05-23T11:27:46.557Z,2.60
2023-05-23T11:30:17.547Z,2.40
2023-05-23T11:32:55.136Z,2.70
2023-05-23T11:35:21.469Z,2.87
2023-05-23T11:37:47.722Z,3.43
2023-05-23T11:40:33.326Z,3.67
2023-05-23T11:43:01.718Z,4.73
2023-05-23T11:45:29.235Z,4.70
2023-05-23T11:47:55.479Z,4.50
2023-05-23T11:50:22.194Z,4.00
2023-05-23T11:52:51.093Z,4.30
2023-05-23T11:55:19.201Z,3.47
2023-05-23T11:57:45.581Z,4.13
2023-05-23T12:00:12.673Z,4.47
2023-05-23T12:02:42.864Z,4.00
2023-05-23T12:05:10.040Z,4.50
2023-05-23T12:07:40.489Z,3.53
2023-05-23T12:10:07.712Z,4.60
2023-05-23T12:12:33.897Z,4.60
2023-05-23T12:15:00.383Z,4.87
2023-05-23T12:17:26.849Z,4.10
2023-05-23T12:19:53.550Z,4.50
2023-05-23T12:22:26.071Z,5.10
2023-05-23T12:24:55.876Z,5.40
2023-05-23T12:27:30.747Z,5.93
2023-05-23T12:30:16.757Z,6.00
2023-05-23T12:32:44.762Z,6.27
2023-05-23T12:35:12.776Z,6.20
2023-05-23T12:37:39.966Z,6.33
2023-05-23T12:40:17.077Z,6.10
2023-05-23T12:42:53.576Z,6.87
2023-05-23T12:45:24.522Z,5.93
2023-05-23T12:47:53.734Z,5.43
2023-05-23T12:50:20.196Z,6.53
2023-05-23T12:52:46.379Z,7.10
2023-05-23T12:55:12.847Z,7.40
2023-05-23T12:57:39.039Z,8.10
2023-05-23T13:00:05.942Z,8.23
2023-05-23T13:02:32.133Z,7.90
2023-05-23T13:04:58.288Z,9.23
2023-05-23T13:07:24.541Z,9.67
2023-05-23T13:09:50.655Z,8.60
2023-05-23T13:12:16.841Z,8.83
2023-05-23T13:14:43.025Z,9.40
2023-05-23T13:17:09.256Z,9.57
2023-05-23T13:19:35.457Z,9.03
2023-05-23T13:22:03.775Z,8.80
2023-05-23T13:24:30.243Z,7.63
2023-05-23T13:26:56.357Z,8.47
2023-05-23T13:29:22.490Z,8.40
2023-05-23T13:31:48.754Z,8.23
2023-05-23T13:34:14.972Z,8.30
2023-05-23T13:36:41.086Z,7.90
2023-05-23T13:39:07.704Z,8.77
2023-05-23T13:41:33.850Z,7.50
2023-05-23T13:43:59.986Z,7.17
2023-05-23T13:46:26.265Z,7.73
2023-05-23T13:48:52.433Z,7.67
2023-05-23T13:51:18.527Z,6.70
2023-05-23T13:53:45.093Z,8.17
2023-05-23T13:56:11.515Z,5.90
2023-05-23T13:58:37.656Z,7.20
2023-05-23T14:01:03.842Z,5.60
2023-05-23T14:03:30.025Z,7.43
2023-05-23T14:05:56.158Z,6.27
2023-05-23T14:08:22.298Z,5.70
2023-05-23T14:10:48.551Z,5.43
2023-05-23T14:13:14.828Z,5.47
2023-05-23T14:15:41.570Z,5.30
2023-05-23T14:18:07.969Z,4.83
2023-05-23T14:20:34.328Z,5.20
2023-05-23T14:23:00.486Z,9.50
2023-05-23T14:25:26.627Z,5.30
2023-05-23T14:27:52.828Z,4.87
2023-05-23T14:30:19.147Z,4.60
2023-05-23T14:32:45.439Z,5.00
2023-05-23T14:35:11.730Z,4.97
2023-05-23T14:37:38.437Z,5.20
2023-05-23T14:40:06.186Z,5.20
2023-05-23T14:42:32.524Z,4.87
2023-05-23T14:44:58.667Z,5.10
2023-05-23T14:47:24.938Z,4.80
2023-05-23T14:49:51.083Z,4.70
2023-05-23T14:52:17.246Z,4.30
2023-05-23T14:54:43.364Z,4.13
2023-05-23T14:57:09.743Z,4.47
2023-05-23T14:59:35.980Z,3.63
2023-05-23T15:02:03.120Z,4.17
2023-05-23T15:04:30.136Z,3.60
2023-05-23T15:06:56.467Z,3.37
2023-05-23T15:09:22.859Z,3.20
2023-05-23T15:11:49.019Z,3.60
2023-05-23T15:14:18.177Z,4.13
2023-05-23T15:16:45.020Z,3.40
2023-05-23T15:19:11.205Z,3.90
2023-05-23T15:21:37.369Z,4.00
2023-05-23T15:24:03.711Z,3.33
2023-05-23T15:26:30.175Z,3.50
2023-05-23T15:28:56.342Z,3.53
2023-05-23T15:31:22.576Z,3.53
2023-05-23T15:33:48.876Z,3.20
2023-05-23T15:36:15.108Z,3.63
2023-05-23T15:38:41.419Z,3.70
2023-05-23T15:41:07.618Z,4.10
2023-05-23T15:43:34.704Z,3.90
2023-05-23T15:46:01.366Z,3.40
2023-05-23T15:48:27.640Z,3.73
2023-05-23T15:50:53.842Z,4.53
2023-05-23T15:53:20.725Z,3.93
2023-05-23T15:55:46.876Z,6.90
2023-05-23T15:58:13.289Z,3.93
2023-05-23T16:00:40.105Z,4.43
2023-05-23T16:03:06.462Z,3.90
2023-05-23T16:05:32.808Z,3.80
2023-05-23T16:07:59.012Z,3.90
2023-05-23T16:10:25.270Z,4.30
2023-05-23T16:12:51.545Z,4.03
2023-05-23T16:15:17.753Z,3.63
2023-05-23T16:17:44.153Z,3.87
2023-05-23T16:20:10.693Z,3.87
2023-05-23T16:22:37.043Z,3.73
2023-05-23T16:25:05.378Z,3.70
2023-05-23T16:27:31.581Z,3.20
2023-05-23T16:29:57.715Z,4.23
2023-05-23T16:32:23.942Z,3.43
2023-05-23T16:34:54.012Z,3.00
2023-05-23T16:37:20.949Z,3.27
2023-05-23T16:39:47.090Z,3.50
2023-05-23T16:42:13.498Z,3.30
2023-05-23T16:44:40.333Z,3.47
2023-05-23T16:47:06.560Z,2.80
2023-05-23T16:49:32.776Z,3.57
2023-05-23T16:51:58.955Z,3.50
2023-05-23T16:54:25.098Z,3.70
2023-05-23T16:56:51.198Z,3.83
2023-05-23T16:59:17.492Z,2.80
2023-05-23T17:01:43.739Z,4.07
2023-05-23T17:04:09.960Z,3.50
2023-05-23T17:06:36.760Z,3.50
2023-05-23T17:09:02.977Z,3.60
2023-05-23T17:11:29.113Z,4.17
2023-05-23T17:13:55.296Z,3.53
2023-05-23T17:16:21.854Z,3.67
2023-05-23T17:18:48.094Z,3.80
2023-05-23T17:21:14.221Z,3.73
2023-05-23T17:23:41.004Z,3.43
2023-05-23T17:26:07.164Z,3.83
2023-05-23T17:28:33.364Z,3.33
2023-05-23T17:30:59.513Z,3.50
2023-05-23T17:33:25.744Z,3.30
2023-05-23T17:35:51.940Z,3.00
2023-05-23T17:38:18.759Z,4.60
2023-05-23T17:40:45.455Z,2.90
2023-05-23T17:43:11.990Z,3.07
2023-05-23T17:45:38.201Z,3.40
2023-05-23T17:48:04.600Z,3.90
2023-05-23T17:50:30.813Z,3.60
2023-05-23T17:52:57.002Z,3.80
2023-05-23T17:55:23.204Z,3.70
2023-05-23T17:57:49.329Z,3.90
2023-05-23T18:00:16.888Z,3.27
2023-05-23T18:02:43.125Z,2.83
2023-05-23T18:05:09.868Z,3.90
2023-05-23T18:07:36.057Z,2.90
2023-05-23T18:10:02.647Z,3.80
2023-05-23T18:12:28.807Z,3.13
2023-05-23T18:14:55.124Z,3.23
2023-05-23T18:17:21.651Z,3.70
2023-05-23T18:19:47.822Z,3.57
2023-05-23T18:22:15.872Z,3.53
2023-05-23T18:24:42.577Z,3.90
2023-05-23T18:27:08.732Z,3.57
2023-05-23T18:29:35.114Z,3.90
2023-05-23T18:32:01.478Z,3.60
2023-05-23T18:34:29.104Z,3.17
2023-05-23T18:36:55.611Z,3.43
2023-05-23T18:39:22.227Z,4.73
2023-05-23T18:41:48.399Z,3.70
2023-05-23T18:44:14.749Z,3.37
2023-05-23T18:46:41.218Z,3.13
2023-05-23T18:49:07.429Z,2.97
2023-05-23T18:51:34.693Z,3.77
2023-05-23T18:54:00.962Z,3.20
2023-05-23T18:56:27.169Z,4.43
2023-05-23T18:58:53.408Z,5.50
2023-05-23T19:01:19.608Z,14.97
2023-05-23T19:03:45.972Z,5.87
2023-05-23T19:06:12.230Z,4.17
2023-05-23T19:08:38.509Z,3.77
2023-05-23T19:11:05.273Z,3.40
2023-05-23T19:13:31.445Z,3.93
2023-05-23T19:15:57.659Z,3.80
2023-05-23T19:18:23.892Z,3.50
2023-05-23T19:20:53.866Z,4.00
2023-05-23T19:23:20.237Z,4.00
2023-05-23T19:25:46.806Z,3.97
2023-05-23T19:28:14.625Z,3.20
2023-05-23T19:30:41.162Z,3.20
2023-05-23T19:33:07.545Z,3.10
2023-05-23T19:35:33.877Z,3.80
2023-05-23T19:38:01.190Z,3.33
2023-05-23T19:40:27.671Z,3.97
2023-05-23T19:42:54.086Z,3.30
2023-05-23T19:45:20.587Z,2.77
2023-05-23T19:47:46.790Z,3.60
2023-05-23T19:50:13.374Z,3.50
2023-05-23T19:52:40.624Z,3.30
2023-05-23T19:55:08.302Z,2.83
2023-05-23T19:57:34.416Z,3.60
2023-05-23T20:00:00.692Z,3.00
2023-05-23T20:02:26.966Z,3.80
2023-05-23T20:04:53.096Z,3.03
2023-05-23T20:07:19.211Z,3.33
2023-05-23T20:09:45.436Z,3.07
2023-05-23T20:12:11.613Z,3.40
2023-05-23T20:14:37.813Z,3.40
2023-05-23T20:17:03.949Z,3.80
2023-05-23T20:19:30.076Z,3.70
2023-05-23T20:21:56.535Z,3.00
2023-05-23T20:24:23.628Z,3.67
2023-05-23T20:26:50.034Z,3.20
2023-05-23T20:29:16.103Z,3.47
2023-05-23T20:31:42.239Z,3.93
2023-05-23T20:34:08.539Z,7.70
2023-05-23T20:36:34.670Z,4.30
2023-05-23T20:39:00.820Z,4.03
2023-05-23T20:41:28.766Z,3.73
2023-05-23T20:43:54.890Z,3.50
2023-05-23T20:46:21.485Z,3.80
2023-05-23T20:48:47.592Z,3.67
2023-05-23T20:51:13.768Z,3.93
2023-05-23T20:53:39.921Z,3.73
2023-05-23T20:56:09.431Z,3.73
2023-05-23T20:58:35.941Z,2.90
2023-05-23T21:01:02.120Z,2.60
2023-05-23T21:03:28.401Z,3.60
2023-05-23T21:05:54.630Z,4.00
2023-05-23T21:08:21.811Z,3.07
2023-05-23T21:10:51.463Z,2.93
2023-05-23T21:13:19.534Z,3.30
2023-05-23T21:15:45.661Z,3.10
2023-05-23T21:18:11.857Z,3.20
2023-05-23T21:20:38.058Z,2.97
2023-05-23T21:23:04.526Z,3.60
2023-05-23T21:25:30.640Z,3.07
2023-05-23T21:27:56.736Z,3.20
2023-05-23T21:30:24.547Z,3.00
2023-05-23T21:32:52.441Z,2.57
2023-05-23T21:35:18.588Z,3.27
2023-05-23T21:37:44.708Z,3.10
2023-05-23T21:40:11.262Z,2.50
2023-05-23T21:42:37.389Z,3.03
2023-05-23T21:45:03.981Z,2.70
2023-05-23T21:47:30.256Z,2.50
2023-05-23T21:49:56.436Z,3.40
2023-05-23T21:52:22.562Z,3.27
2023-05-23T21:54:49.157Z,2.60
2023-05-23T21:57:15.594Z,2.77
2023-05-23T21:59:41.720Z,2.93
2023-05-23T22:02:07.964Z,2.90
2023-05-23T22:04:34.166Z,2.90
2023-05-23T22:07:00.592Z,3.23
2023-05-23T22:09:26.773Z,3.03
2023-05-23T22:11:53.161Z,3.10
2023-05-23T22:14:19.398Z,3.30
2023-05-23T22:16:45.724Z,2.83
2023-05-23T22:19:11.948Z,3.40
2023-05-23T22:21:38.190Z,2.97
2023-05-23T22:24:04.621Z,2.70
2023-05-23T22:26:31.374Z,2.63
2023-05-23T22:28:57.531Z,3.40
2023-05-23T22:31:23.818Z,2.70
2023-05-23T22:33:50.517Z,3.20
2023-05-23T22:36:16.953Z,2.83
2023-05-23T22:38:43.204Z,2.90
2023-05-23T22:41:09.375Z,2.63
2023-05-23T22:43:36.560Z,2.37
2023-05-23T22:46:02.906Z,2.60
2023-05-23T22:48:32.848Z,2.97
2023-05-23T22:51:02.601Z,3.27
2023-05-23T22:53:29.272Z,2.80
2023-05-23T22:55:55.729Z,3.37
2023-05-23T22:58:21.933Z,2.47
2023-05-23T23:00:48.104Z,2.80
2023-05-23T23:03:14.670Z,2.17
2023-05-23T23:05:41.056Z,2.70
2023-05-23T23:08:07.215Z,2.93
2023-05-23T23:10:33.356Z,2.63
2023-05-23T23:12:59.484Z,3.10
2023-05-23T23:15:25.646Z,2.53
2023-05-23T23:17:51.845Z,2.70
2023-05-23T23:20:18.690Z,3.50
2023-05-23T23:22:46.315Z,3.00
2023-05-23T23:25:12.483Z,2.80
2023-05-23T23:27:39.229Z,2.27
2023-05-23T23:30:06.635Z,2.80
2023-05-23T23:32:34.373Z,2.80
2023-05-23T23:35:00.852Z,2.87
2023-05-23T23:37:27.020Z,3.07
2023-05-23T23:39:53.119Z,3.03
2023-05-23T23:42:20.040Z,2.93
2023-05-23T23:44:46.145Z,2.77
2023-05-23T23:47:12.280Z,3.03
2023-05-23T23:49:38.446Z,2.63
2023-05-23T23:52:05.091Z,3.27
2023-05-23T23:54:31.192Z,2.40
2023-05-23T23:56:57.315Z,2.80
2023-05-23T23:59:23.448Z,2.90
